aviador You're here:

RJCK Decoded Metar

KUSHIRO AIRPORT in JAPAN
Report Time2017-05-26 11:00:00
UTC Time2017-05-26 13:10:18
Flight Rules Old
Wind030° at 07 kt
W.Decomp.*RWY 35: 4.7 kt HW 5.2 kt RCW
W.Rank030° ranks 7
Current wind is below 030° avg. (7.3)
Visibility9999 m
Phenomena:N/A
Clouds:Few 015 Hf
Broken 030 Hf
Expected CloudBase > 2,400 ft AGL from Temp-Dew spread
Ceiling3,000 ft
Temp12°C (ISA -2)
Dew Point06°C (67% RH)
AAT8.6°C
QNH1011 hPa
Density Alt236 ft
Elevation322 ft
Report Wrong Elevation
Raw Report
METAR RJCK 261100Z 03007KT 9999 FEW015 BKN030 12/06 Q1011=

Extra information for RJCK:More info

Metar Taf Metar & Taf Last 4 Metars F.Rules Stats Wind Profile Meteogram Temp Stats Airport Information Weather charts Add Link Nearby VenuesMetar ALERT Operation Metar Decoded Social comments